sensor_id;sensor_type;location;lat;lon;timestamp;temperature;humidity
66835;HTU21D;53743;51.100;5.874;2023-05-21T00:00:05;15.98;73.11
66835;HTU21D;53743;51.100;5.874;2023-05-21T00:01:12;15.97;73.34
66835;HTU21D;53743;51.100;5.874;2023-05-21T00:02:16;15.95;73.40
66835;HTU21D;53743;51.100;5.874;2023-05-21T00:03:19;15.96;73.37
66835;HTU21D;53743;51.100;5.874;2023-05-21T00:04:20;15.96;73.50
66835;HTU21D;53743;51.100;5.874;2023-05-21T00:05:24;15.95;73.54
66835;HTU21D;53743;51.100;5.874;2023-05-21T00:06:27;15.95;73.89
66835;HTU21D;53743;51.100;5.874;2023-05-21T00:07:30;15.92;73.80
66835;HTU21D;53743;51.100;5.874;2023-05-21T00:08:32;15.93;73.93
66835;HTU21D;53743;51.100;5.874;2023-05-21T00:09:36;15.93;73.93
66835;HTU21D;53743;51.100;5.874;2023-05-21T00:10:38;15.93;73.93
66835;HTU21D;53743;51.100;5.874;2023-05-21T00:11:40;15.93;73.99
66835;HTU21D;53743;51.100;5.874;2023-05-21T00:12:42;15.93;74.15
66835;HTU21D;53743;51.100;5.874;2023-05-21T00:13:45;15.91;74.26
66835;HTU21D;53743;51.100;5.874;2023-05-21T00:14:46;15.91;74.77
66835;HTU21D;53743;51.100;5.874;2023-05-21T00:15:49;15.89;74.52
66835;HTU21D;53743;51.100;5.874;2023-05-21T00:16:50;15.89;74.67
66835;HTU21D;53743;51.100;5.874;2023-05-21T00:17:53;15.87;74.60
66835;HTU21D;53743;51.100;5.874;2023-05-21T00:18:55;15.89;74.59
66835;HTU21D;53743;51.100;5.874;2023-05-21T00:20:00;15.90;74.71
66835;HTU21D;53743;51.100;5.874;2023-05-21T00:21:11;15.89;74.55
66835;HTU21D;53743;51.100;5.874;2023-05-21T00:22:18;15.89;74.73
66835;HTU21D;53743;51.100;5.874;2023-05-21T00:23:22;15.88;74.76
66835;HTU21D;53743;51.100;5.874;2023-05-21T00:24:28;15.85;74.89
66835;HTU21D;53743;51.100;5.874;2023-05-21T00:25:30;15.84;74.90
66835;HTU21D;53743;51.100;5.874;2023-05-21T00:26:32;15.85;75.00
66835;HTU21D;53743;51.100;5.874;2023-05-21T00:27:37;15.84;75.02
66835;HTU21D;53743;51.100;5.874;2023-05-21T00:28:40;15.86;75.14
66835;HTU21D;53743;51.100;5.874;2023-05-21T00:29:41;15.86;75.18
66835;HTU21D;53743;51.100;5.874;2023-05-21T00:30:48;15.86;75.22
66835;HTU21D;53743;51.100;5.874;2023-05-21T00:31:50;15.85;75.35
66835;HTU21D;53743;51.100;5.874;2023-05-21T00:32:53;15.84;75.30
66835;HTU21D;53743;51.100;5.874;2023-05-21T00:33:54;15.84;75.61
66835;HTU21D;53743;51.100;5.874;2023-05-21T00:35:02;15.83;75.47
66835;HTU21D;53743;51.100;5.874;2023-05-21T00:36:04;15.81;75.58
66835;HTU21D;53743;51.100;5.874;2023-05-21T00:37:07;15.78;75.86
66835;HTU21D;53743;51.100;5.874;2023-05-21T00:38:10;15.75;75.67
66835;HTU21D;53743;51.100;5.874;2023-05-21T00:39:13;15.71;75.77
66835;HTU21D;53743;51.100;5.874;2023-05-21T00:40:17;15.69;75.79
66835;HTU21D;53743;51.100;5.874;2023-05-21T00:41:20;15.68;75.91
66835;HTU21D;53743;51.100;5.874;2023-05-21T00:42:22;15.71;75.79
66835;HTU21D;53743;51.100;5.874;2023-05-21T00:43:26;15.69;75.79
66835;HTU21D;53743;51.100;5.874;2023-05-21T00:44:28;15.71;76.06
66835;HTU21D;53743;51.100;5.874;2023-05-21T00:45:33;15.68;75.85
66835;HTU21D;53743;51.100;5.874;2023-05-21T00:46:36;15.66;75.87
66835;HTU21D;53743;51.100;5.874;2023-05-21T00:47:40;15.66;75.98
66835;HTU21D;53743;51.100;5.874;2023-05-21T00:48:44;15.62;76.35
66835;HTU21D;53743;51.100;5.874;2023-05-21T00:49:47;15.60;76.43
66835;HTU21D;53743;51.100;5.874;2023-05-21T00:50:51;15.60;76.19
66835;HTU21D;53743;51.100;5.874;2023-05-21T00:51:55;15.61;76.15
66835;HTU21D;53743;51.100;5.874;2023-05-21T00:53:00;15.58;76.22
66835;HTU21D;53743;51.100;5.874;2023-05-21T00:54:04;15.60;76.37
66835;HTU21D;53743;51.100;5.874;2023-05-21T00:55:07;15.58;76.24
66835;HTU21D;53743;51.100;5.874;2023-05-21T00:56:10;15.56;76.43
66835;HTU21D;53743;51.100;5.874;2023-05-21T00:57:13;15.58;76.49
66835;HTU21D;53743;51.100;5.874;2023-05-21T00:58:17;15.56;76.44
66835;HTU21D;53743;51.100;5.874;2023-05-21T00:59:19;15.55;76.62
66835;HTU21D;53743;51.100;5.874;2023-05-21T01:00:22;15.56;76.51
66835;HTU21D;53743;51.100;5.874;2023-05-21T01:01:25;15.54;76.89
66835;HTU21D;53743;51.100;5.874;2023-05-21T01:02:35;15.52;76.98
66835;HTU21D;53743;51.100;5.874;2023-05-21T01:03:37;15.51;76.73
66835;HTU21D;53743;51.100;5.874;2023-05-21T01:04:42;15.52;77.29
66835;HTU21D;53743;51.100;5.874;2023-05-21T01:05:44;15.51;76.81
66835;HTU21D;53743;51.100;5.874;2023-05-21T01:06:48;15.49;76.92
66835;HTU21D;53743;51.100;5.874;2023-05-21T01:07:50;15.47;77.03
66835;HTU21D;53743;51.100;5.874;2023-05-21T01:08:53;15.43;77.10
66835;HTU21D;53743;51.100;5.874;2023-05-21T01:10:00;15.42;77.16
66835;HTU21D;53743;51.100;5.874;2023-05-21T01:11:06;15.42;77.44
66835;HTU21D;53743;51.100;5.874;2023-05-21T01:12:10;15.41;77.26
66835;HTU21D;53743;51.100;5.874;2023-05-21T01:13:16;15.40;77.34
66835;HTU21D;53743;51.100;5.874;2023-05-21T01:14:22;15.40;77.45
66835;HTU21D;53743;51.100;5.874;2023-05-21T01:15:26;15.41;77.49
66835;HTU21D;53743;51.100;5.874;2023-05-21T01:16:28;15.41;77.37
66835;HTU21D;53743;51.100;5.874;2023-05-21T01:17:31;15.42;77.38
66835;HTU21D;53743;51.100;5.874;2023-05-21T01:18:34;15.40;77.55
66835;HTU21D;53743;51.100;5.874;2023-05-21T01:19:38;15.41;77.42
66835;HTU21D;53743;51.100;5.874;2023-05-21T01:20:41;15.40;77.48
66835;HTU21D;53743;51.100;5.874;2023-05-21T01:21:50;15.38;78.07
66835;HTU21D;53743;51.100;5.874;2023-05-21T01:22:55;15.37;78.16
66835;HTU21D;53743;51.100;5.874;2023-05-21T01:23:58;15.37;77.65
66835;HTU21D;53743;51.100;5.874;2023-05-21T01:25:02;15.34;77.72
66835;HTU21D;53743;51.100;5.874;2023-05-21T01:26:05;15.34;77.72
66835;HTU21D;53743;51.100;5.874;2023-05-21T01:27:06;15.33;77.92
66835;HTU21D;53743;51.100;5.874;2023-05-21T01:28:10;15.32;77.83
66835;HTU21D;53743;51.100;5.874;2023-05-21T01:29:12;15.34;77.99
66835;HTU21D;53743;51.100;5.874;2023-05-21T01:30:16;15.34;77.81
66835;HTU21D;53743;51.100;5.874;2023-05-21T01:31:26;15.34;77.87
66835;HTU21D;53743;51.100;5.874;2023-05-21T01:32:39;15.36;78.01
66835;HTU21D;53743;51.100;5.874;2023-05-21T01:33:49;15.38;77.93
66835;HTU21D;53743;51.100;5.874;2023-05-21T01:35:01;15.37;77.92
66835;HTU21D;53743;51.100;5.874;2023-05-21T01:36:12;15.36;78.04
66835;HTU21D;53743;51.100;5.874;2023-05-21T01:37:28;15.33;78.13
66835;HTU21D;53743;51.100;5.874;2023-05-21T01:38:41;15.33;78.16
66835;HTU21D;53743;51.100;5.874;2023-05-21T01:39:52;15.32;78.16
66835;HTU21D;53743;51.100;5.874;2023-05-21T01:41:02;15.33;78.26
66835;HTU21D;53743;51.100;5.874;2023-05-21T01:42:09;15.34;78.16
66835;HTU21D;53743;51.100;5.874;2023-05-21T01:43:14;15.32;78.36
66835;HTU21D;53743;51.100;5.874;2023-05-21T01:44:17;15.29;78.40
66835;HTU21D;53743;51.100;5.874;2023-05-21T01:45:22;15.29;78.57
66835;HTU21D;53743;51.100;5.874;2023-05-21T01:46:29;15.27;78.64
66835;HTU21D;53743;51.100;5.874;2023-05-21T01:47:35;15.27;78.69
66835;HTU21D;53743;51.100;5.874;2023-05-21T01:48:41;15.28;78.73
66835;HTU21D;53743;51.100;5.874;2023-05-21T01:49:44;15.28;78.77
66835;HTU21D;53743;51.100;5.874;2023-05-21T01:50:49;15.28;78.85
66835;HTU21D;53743;51.100;5.874;2023-05-21T01:51:52;15.27;78.84
66835;HTU21D;53743;51.100;5.874;2023-05-21T01:52:55;15.26;78.81
66835;HTU21D;53743;51.100;5.874;2023-05-21T01:53:59;15.26;78.91
66835;HTU21D;53743;51.100;5.874;2023-05-21T01:55:02;15.26;79.27
66835;HTU21D;53743;51.100;5.874;2023-05-21T01:56:05;15.26;79.15
66835;HTU21D;53743;51.100;5.874;2023-05-21T01:57:08;15.25;79.08
66835;HTU21D;53743;51.100;5.874;2023-05-21T01:58:10;15.23;79.17
66835;HTU21D;53743;51.100;5.874;2023-05-21T01:59:12;15.22;79.23
66835;HTU21D;53743;51.100;5.874;2023-05-21T02:00:14;15.22;79.29
66835;HTU21D;53743;51.100;5.874;2023-05-21T02:01:17;15.22;79.54
66835;HTU21D;53743;51.100;5.874;2023-05-21T02:02:19;15.21;79.34
66835;HTU21D;53743;51.100;5.874;2023-05-21T02:03:24;15.25;79.34
66835;HTU21D;53743;51.100;5.874;2023-05-21T02:04:26;15.19;79.48
66835;HTU21D;53743;51.100;5.874;2023-05-21T02:05:28;15.18;79.75
66835;HTU21D;53743;51.100;5.874;2023-05-21T02:06:30;15.16;79.69
66835;HTU21D;53743;51.100;5.874;2023-05-21T02:07:32;15.16;79.67
66835;HTU21D;53743;51.100;5.874;2023-05-21T02:08:35;15.15;79.82
66835;HTU21D;53743;51.100;5.874;2023-05-21T02:09:39;15.17;79.59
66835;HTU21D;53743;51.100;5.874;2023-05-21T02:10:41;15.16;79.90
66835;HTU21D;53743;51.100;5.874;2023-05-21T02:11:43;15.15;79.81
66835;HTU21D;53743;51.100;5.874;2023-05-21T02:12:45;15.17;79.85
66835;HTU21D;53743;51.100;5.874;2023-05-21T02:13:47;15.16;79.75
66835;HTU21D;53743;51.100;5.874;2023-05-21T02:14:49;15.17;79.75
66835;HTU21D;53743;51.100;5.874;2023-05-21T02:15:51;15.16;79.74
66835;HTU21D;53743;51.100;5.874;2023-05-21T02:16:54;15.15;79.74
66835;HTU21D;53743;51.100;5.874;2023-05-21T02:17:57;15.18;80.14
66835;HTU21D;53743;51.100;5.874;2023-05-21T02:18:59;15.18;80.00
66835;HTU21D;53743;51.100;5.874;2023-05-21T02:20:04;15.16;80.20
66835;HTU21D;53743;51.100;5.874;2023-05-21T02:21:11;15.16;79.88
66835;HTU21D;53743;51.100;5.874;2023-05-21T02:22:13;15.14;80.16
66835;HTU21D;53743;51.100;5.874;2023-05-21T02:23:14;15.14;80.04
66835;HTU21D;53743;51.100;5.874;2023-05-21T02:24:17;15.15;80.15
66835;HTU21D;53743;51.100;5.874;2023-05-21T02:25:20;15.16;79.97
66835;HTU21D;53743;51.100;5.874;2023-05-21T02:26:23;15.15;80.01
66835;HTU21D;53743;51.100;5.874;2023-05-21T02:27:24;15.14;80.09
66835;HTU21D;53743;51.100;5.874;2023-05-21T02:28:28;15.16;0.00
66835;HTU21D;53743;51.100;5.874;2023-05-21T02:29:30;15.17;80.18
66835;HTU21D;53743;51.100;5.874;2023-05-21T02:30:32;15.18;80.09
66835;HTU21D;53743;51.100;5.874;2023-05-21T02:31:34;15.18;79.93
66835;HTU21D;53743;51.100;5.874;2023-05-21T02:32:37;15.16;79.95
66835;HTU21D;53743;51.100;5.874;2023-05-21T02:33:41;15.16;80.08
66835;HTU21D;53743;51.100;5.874;2023-05-21T02:34:44;15.16;80.14
66835;HTU21D;53743;51.100;5.874;2023-05-21T02:35:46;15.21;80.04
66835;HTU21D;53743;51.100;5.874;2023-05-21T02:36:49;15.17;80.24
66835;HTU21D;53743;51.100;5.874;2023-05-21T02:37:51;15.14;80.20
66835;HTU21D;53743;51.100;5.874;2023-05-21T02:38:58;15.14;80.27
66835;HTU21D;53743;51.100;5.874;2023-05-21T02:40:03;15.14;80.47
66835;HTU21D;53743;51.100;5.874;2023-05-21T02:41:08;15.16;80.28
66835;HTU21D;53743;51.100;5.874;2023-05-21T02:42:10;15.15;80.45
66835;HTU21D;53743;51.100;5.874;2023-05-21T02:43:13;15.14;80.59
66835;HTU21D;53743;51.100;5.874;2023-05-21T02:44:14;15.13;81.01
66835;HTU21D;53743;51.100;5.874;2023-05-21T02:45:18;15.11;80.70
66835;HTU21D;53743;51.100;5.874;2023-05-21T02:46:20;15.12;80.69
66835;HTU21D;53743;51.100;5.874;2023-05-21T02:47:23;15.11;80.70
66835;HTU21D;53743;51.100;5.874;2023-05-21T02:48:25;15.11;80.72
66835;HTU21D;53743;51.100;5.874;2023-05-21T02:49:27;15.12;80.90
66835;HTU21D;53743;51.100;5.874;2023-05-21T02:50:28;15.11;80.94
66835;HTU21D;53743;51.100;5.874;2023-05-21T02:51:33;15.12;81.03
66835;HTU21D;53743;51.100;5.874;2023-05-21T02:52:34;15.14;81.00
66835;HTU21D;53743;51.100;5.874;2023-05-21T02:53:37;15.13;80.97
66835;HTU21D;53743;51.100;5.874;2023-05-21T02:54:39;15.13;81.04
66835;HTU21D;53743;51.100;5.874;2023-05-21T02:55:42;15.12;81.01
66835;HTU21D;53743;51.100;5.874;2023-05-21T02:56:45;15.10;81.14
66835;HTU21D;53743;51.100;5.874;2023-05-21T02:57:47;15.11;81.22
66835;HTU21D;53743;51.100;5.874;2023-05-21T02:58:49;15.10;81.16
66835;HTU21D;53743;51.100;5.874;2023-05-21T02:59:52;15.08;81.35
66835;HTU21D;53743;51.100;5.874;2023-05-21T03:00:53;15.08;81.39
66835;HTU21D;53743;51.100;5.874;2023-05-21T03:01:56;15.07;81.37
66835;HTU21D;53743;51.100;5.874;2023-05-21T03:02:59;15.04;81.48
66835;HTU21D;53743;51.100;5.874;2023-05-21T03:04:01;15.04;81.51
66835;HTU21D;53743;51.100;5.874;2023-05-21T03:05:03;15.06;81.51
66835;HTU21D;53743;51.100;5.874;2023-05-21T03:06:07;15.06;81.42
66835;HTU21D;53743;51.100;5.874;2023-05-21T03:07:09;15.07;81.52
66835;HTU21D;53743;51.100;5.874;2023-05-21T03:08:13;15.07;81.41
66835;HTU21D;53743;51.100;5.874;2023-05-21T03:09:15;15.09;81.25
66835;HTU21D;53743;51.100;5.874;2023-05-21T03:10:17;15.09;81.23
66835;HTU21D;53743;51.100;5.874;2023-05-21T03:11:19;15.07;81.42
66835;HTU21D;53743;51.100;5.874;2023-05-21T03:12:23;15.06;81.40
66835;HTU21D;53743;51.100;5.874;2023-05-21T03:13:25;15.06;81.38
66835;HTU21D;53743;51.100;5.874;2023-05-21T03:14:27;15.03;81.36
66835;HTU21D;53743;51.100;5.874;2023-05-21T03:15:29;15.03;81.43
66835;HTU21D;53743;51.100;5.874;2023-05-21T03:16:32;15.04;81.32
66835;HTU21D;53743;51.100;5.874;2023-05-21T03:17:34;15.03;81.19
66835;HTU21D;53743;51.100;5.874;2023-05-21T03:18:36;15.03;81.49
66835;HTU21D;53743;51.100;5.874;2023-05-21T03:19:38;15.01;81.45
66835;HTU21D;53743;51.100;5.874;2023-05-21T03:20:41;15.00;81.44
66835;HTU21D;53743;51.100;5.874;2023-05-21T03:21:43;15.03;81.52
66835;HTU21D;53743;51.100;5.874;2023-05-21T03:22:48;14.98;81.44
66835;HTU21D;53743;51.100;5.874;2023-05-21T03:23:49;14.97;81.58
66835;HTU21D;53743;51.100;5.874;2023-05-21T03:24:52;14.96;81.71
66835;HTU21D;53743;51.100;5.874;2023-05-21T03:25:53;14.95;81.68
66835;HTU21D;53743;51.100;5.874;2023-05-21T03:26:56;14.95;81.78
66835;HTU21D;53743;51.100;5.874;2023-05-21T03:28:00;14.94;81.74
66835;HTU21D;53743;51.100;5.874;2023-05-21T03:29:22;14.95;81.85
66835;HTU21D;53743;51.100;5.874;2023-05-21T03:30:25;14.95;81.71
66835;HTU21D;53743;51.100;5.874;2023-05-21T03:31:53;14.95;81.85
66835;HTU21D;53743;51.100;5.874;2023-05-21T03:32:56;14.95;81.89
66835;HTU21D;53743;51.100;5.874;2023-05-21T03:33:59;14.93;81.83
66835;HTU21D;53743;51.100;5.874;2023-05-21T03:35:05;14.91;81.90
66835;HTU21D;53743;51.100;5.874;2023-05-21T03:36:07;14.89;81.95
66835;HTU21D;53743;51.100;5.874;2023-05-21T03:37:11;14.87;81.92
66835;HTU21D;53743;51.100;5.874;2023-05-21T03:38:13;14.89;82.04
66835;HTU21D;53743;51.100;5.874;2023-05-21T03:39:15;14.89;81.98
66835;HTU21D;53743;51.100;5.874;2023-05-21T03:40:17;14.88;82.11
66835;HTU21D;53743;51.100;5.874;2023-05-21T03:41:19;14.89;82.61
66835;HTU21D;53743;51.100;5.874;2023-05-21T03:42:25;14.86;82.49
66835;HTU21D;53743;51.100;5.874;2023-05-21T03:43:30;14.83;82.39
66835;HTU21D;53743;51.100;5.874;2023-05-21T03:44:31;14.82;82.49
66835;HTU21D;53743;51.100;5.874;2023-05-21T03:45:48;14.82;82.49
66835;HTU21D;53743;51.100;5.874;2023-05-21T03:47:24;14.81;82.43
66835;HTU21D;53743;51.100;5.874;2023-05-21T03:48:27;14.79;82.43
66835;HTU21D;53743;51.100;5.874;2023-05-21T03:49:28;14.81;82.61
66835;HTU21D;53743;51.100;5.874;2023-05-21T03:50:32;14.79;82.62
66835;HTU21D;53743;51.100;5.874;2023-05-21T03:51:33;14.79;82.75
66835;HTU21D;53743;51.100;5.874;2023-05-21T03:52:38;14.77;82.80
66835;HTU21D;53743;51.100;5.874;2023-05-21T03:53:40;14.79;82.95
66835;HTU21D;53743;51.100;5.874;2023-05-21T03:54:41;14.79;82.81
66835;HTU21D;53743;51.100;5.874;2023-05-21T03:55:44;14.78;82.87
66835;HTU21D;53743;51.100;5.874;2023-05-21T03:56:46;14.77;82.93
66835;HTU21D;53743;51.100;5.874;2023-05-21T03:57:49;14.73;82.91
66835;HTU21D;53743;51.100;5.874;2023-05-21T03:58:52;14.73;83.13
66835;HTU21D;53743;51.100;5.874;2023-05-21T03:59:55;14.73;83.21
66835;HTU21D;53743;51.100;5.874;2023-05-21T04:00:58;14.75;83.12
66835;HTU21D;53743;51.100;5.874;2023-05-21T04:02:03;14.75;83.22
66835;HTU21D;53743;51.100;5.874;2023-05-21T04:03:04;14.75;83.19
66835;HTU21D;53743;51.100;5.874;2023-05-21T04:04:07;14.74;83.26
66835;HTU21D;53743;51.100;5.874;2023-05-21T04:05:08;14.75;83.17
66835;HTU21D;53743;51.100;5.874;2023-05-21T04:06:11;14.78;83.11
66835;HTU21D;53743;51.100;5.874;2023-05-21T04:07:13;14.78;83.29
66835;HTU21D;53743;51.100;5.874;2023-05-21T04:08:18;14.78;83.22
66835;HTU21D;53743;51.100;5.874;2023-05-21T04:09:21;14.79;83.08
66835;HTU21D;53743;51.100;5.874;2023-05-21T04:10:25;14.77;83.10
66835;HTU21D;53743;51.100;5.874;2023-05-21T04:11:28;14.75;83.28
66835;HTU21D;53743;51.100;5.874;2023-05-21T04:12:30;14.75;83.25
66835;HTU21D;53743;51.100;5.874;2023-05-21T04:13:32;14.79;83.33
66835;HTU21D;53743;51.100;5.874;2023-05-21T04:14:36;14.79;83.39
66835;HTU21D;53743;51.100;5.874;2023-05-21T04:15:38;14.80;83.23
66835;HTU21D;53743;51.100;5.874;2023-05-21T04:16:40;14.82;83.13
66835;HTU21D;53743;51.100;5.874;2023-05-21T04:17:43;14.84;83.04
66835;HTU21D;53743;51.100;5.874;2023-05-21T04:18:46;14.80;83.32
66835;HTU21D;53743;51.100;5.874;2023-05-21T04:19:49;14.81;83.74
66835;HTU21D;53743;51.100;5.874;2023-05-21T04:20:52;14.84;83.08
66835;HTU21D;53743;51.100;5.874;2023-05-21T04:21:54;14.82;83.01
66835;HTU21D;53743;51.100;5.874;2023-05-21T04:22:57;14.82;83.04
66835;HTU21D;53743;51.100;5.874;2023-05-21T04:23:59;14.84;83.00
66835;HTU21D;53743;51.100;5.874;2023-05-21T04:25:10;14.86;83.08
66835;HTU21D;53743;51.100;5.874;2023-05-21T04:26:12;14.88;83.07
66835;HTU21D;53743;51.100;5.874;2023-05-21T04:27:16;14.92;82.95
66835;HTU21D;53743;51.100;5.874;2023-05-21T04:28:18;14.93;83.01
66835;HTU21D;53743;51.100;5.874;2023-05-21T04:29:22;14.95;82.94
66835;HTU21D;53743;51.100;5.874;2023-05-21T04:30:26;14.98;82.92
66835;HTU21D;53743;51.100;5.874;2023-05-21T04:31:29;15.00;82.85
66835;HTU21D;53743;51.100;5.874;2023-05-21T04:32:31;15.02;82.73
66835;HTU21D;53743;51.100;5.874;2023-05-21T04:33:34;15.03;82.77
66835;HTU21D;53743;51.100;5.874;2023-05-21T04:34:36;0.00;82.63
66835;HTU21D;53743;51.100;5.874;2023-05-21T04:35:39;15.08;82.62
66835;HTU21D;53743;51.100;5.874;2023-05-21T04:36:44;15.09;82.49
66835;HTU21D;53743;51.100;5.874;2023-05-21T04:37:47;15.13;82.43
66835;HTU21D;53743;51.100;5.874;2023-05-21T04:38:48;15.14;82.14
66835;HTU21D;53743;51.100;5.874;2023-05-21T04:39:51;15.19;82.15
66835;HTU21D;53743;51.100;5.874;2023-05-21T04:40:53;15.21;82.02
66835;HTU21D;53743;51.100;5.874;2023-05-21T04:41:58;15.25;81.77
66835;HTU21D;53743;51.100;5.874;2023-05-21T04:43:00;15.30;81.44
66835;HTU21D;53743;51.100;5.874;2023-05-21T04:44:02;15.30;81.36
66835;HTU21D;53743;51.100;5.874;2023-05-21T04:45:07;15.31;81.49
66835;HTU21D;53743;51.100;5.874;2023-05-21T04:46:14;15.30;81.34
66835;HTU21D;53743;51.100;5.874;2023-05-21T04:47:15;15.32;81.42
66835;HTU21D;53743;51.100;5.874;2023-05-21T04:48:18;15.34;81.43
66835;HTU21D;53743;51.100;5.874;2023-05-21T04:49:21;15.37;81.24
66835;HTU21D;53743;51.100;5.874;2023-05-21T04:50:23;15.38;81.27
66835;HTU21D;53743;51.100;5.874;2023-05-21T04:51:25;15.39;81.17
66835;HTU21D;53743;51.100;5.874;2023-05-21T04:52:27;15.42;81.11
66835;HTU21D;53743;51.100;5.874;2023-05-21T04:53:29;15.45;80.93
66835;HTU21D;53743;51.100;5.874;2023-05-21T04:54:33;15.46;80.93
66835;HTU21D;53743;51.100;5.874;2023-05-21T04:55:35;15.47;80.98
66835;HTU21D;53743;51.100;5.874;2023-05-21T04:56:39;15.51;80.80
66835;HTU21D;53743;51.100;5.874;2023-05-21T04:57:41;15.53;80.66
66835;HTU21D;53743;51.100;5.874;2023-05-21T04:58:43;15.57;80.55
66835;HTU21D;53743;51.100;5.874;2023-05-21T04:59:45;15.59;80.38
66835;HTU21D;53743;51.100;5.874;2023-05-21T05:00:48;15.62;80.36
66835;HTU21D;53743;51.100;5.874;2023-05-21T05:01:52;15.66;80.31
66835;HTU21D;53743;51.100;5.874;2023-05-21T05:02:55;15.69;80.20
66835;HTU21D;53743;51.100;5.874;2023-05-21T05:03:57;15.70;80.07
66835;HTU21D;53743;51.100;5.874;2023-05-21T05:05:00;15.70;80.03
66835;HTU21D;53743;51.100;5.874;2023-05-21T05:06:01;15.70;79.98
66835;HTU21D;53743;51.100;5.874;2023-05-21T05:07:04;15.73;79.85
66835;HTU21D;53743;51.100;5.874;2023-05-21T05:08:06;15.75;79.87
66835;HTU21D;53743;51.100;5.874;2023-05-21T05:09:09;15.76;79.67
66835;HTU21D;53743;51.100;5.874;2023-05-21T05:10:10;15.78;79.50
66835;HTU21D;53743;51.100;5.874;2023-05-21T05:11:13;15.78;79.53
66835;HTU21D;53743;51.100;5.874;2023-05-21T05:12:14;15.80;79.62
66835;HTU21D;53743;51.100;5.874;2023-05-21T05:13:17;15.83;79.56
66835;HTU21D;53743;51.100;5.874;2023-05-21T05:14:19;15.87;79.41
66835;HTU21D;53743;51.100;5.874;2023-05-21T05:15:21;15.88;79.26
66835;HTU21D;53743;51.100;5.874;2023-05-21T05:16:23;15.93;79.11
66835;HTU21D;53743;51.100;5.874;2023-05-21T05:17:27;15.96;79.08
66835;HTU21D;53743;51.100;5.874;2023-05-21T05:18:28;15.99;79.04
66835;HTU21D;53743;51.100;5.874;2023-05-21T05:19:31;16.03;78.83
66835;HTU21D;53743;51.100;5.874;2023-05-21T05:20:34;16.06;78.66
66835;HTU21D;53743;51.100;5.874;2023-05-21T05:21:36;16.10;78.59
66835;HTU21D;53743;51.100;5.874;2023-05-21T05:22:38;16.11;78.55
66835;HTU21D;53743;51.100;5.874;2023-05-21T05:23:41;16.13;78.45
66835;HTU21D;53743;51.100;5.874;2023-05-21T05:24:42;16.13;78.49
66835;HTU21D;53743;51.100;5.874;2023-05-21T05:25:45;16.17;78.36
66835;HTU21D;53743;51.100;5.874;2023-05-21T05:26:46;16.18;78.40
66835;HTU21D;53743;51.100;5.874;2023-05-21T05:27:49;16.22;78.22
66835;HTU21D;53743;51.100;5.874;2023-05-21T05:28:51;16.25;78.00
66835;HTU21D;53743;51.100;5.874;2023-05-21T05:29:54;16.32;77.96
66835;HTU21D;53743;51.100;5.874;2023-05-21T05:30:55;16.40;77.82
66835;HTU21D;53743;51.100;5.874;2023-05-21T05:31:59;16.46;77.53
66835;HTU21D;53743;51.100;5.874;2023-05-21T05:33:01;16.52;77.20
66835;HTU21D;53743;51.100;5.874;2023-05-21T05:34:04;16.57;76.86
66835;HTU21D;53743;51.100;5.874;2023-05-21T05:35:07;16.58;76.79
66835;HTU21D;53743;51.100;5.874;2023-05-21T05:36:10;16.63;76.70
66835;HTU21D;53743;51.100;5.874;2023-05-21T05:37:11;16.67;76.46
66835;HTU21D;53743;51.100;5.874;2023-05-21T05:38:14;16.74;76.39
66835;HTU21D;53743;51.100;5.874;2023-05-21T05:39:16;16.81;76.09
66835;HTU21D;53743;51.100;5.874;2023-05-21T05:40:19;16.87;75.93
66835;HTU21D;53743;51.100;5.874;2023-05-21T05:41:21;16.95;75.75
66835;HTU21D;53743;51.100;5.874;2023-05-21T05:42:24;17.07;74.83
66835;HTU21D;53743;51.100;5.874;2023-05-21T05:43:25;17.11;74.71
66835;HTU21D;53743;51.100;5.874;2023-05-21T05:44:29;17.18;74.63
66835;HTU21D;53743;51.100;5.874;2023-05-21T05:45:31;17.26;74.31
66835;HTU21D;53743;51.100;5.874;2023-05-21T05:46:34;17.34;73.99
66835;HTU21D;53743;51.100;5.874;2023-05-21T05:47:37;17.40;73.57
66835;HTU21D;53743;51.100;5.874;2023-05-21T05:48:41;17.48;73.21
66835;HTU21D;53743;51.100;5.874;2023-05-21T05:49:42;17.52;72.43
66835;HTU21D;53743;51.100;5.874;2023-05-21T05:50:45;17.54;72.89
66835;HTU21D;53743;51.100;5.874;2023-05-21T05:51:48;17.54;73.02
66835;HTU21D;53743;51.100;5.874;2023-05-21T05:52:50;17.63;72.69
66835;HTU21D;53743;51.100;5.874;2023-05-21T05:53:52;17.72;72.52
66835;HTU21D;53743;51.100;5.874;2023-05-21T05:54:54;17.82;72.24
66835;HTU21D;53743;51.100;5.874;2023-05-21T05:55:56;17.91;71.79
66835;HTU21D;53743;51.100;5.874;2023-05-21T05:56:59;17.99;71.73
66835;HTU21D;53743;51.100;5.874;2023-05-21T05:58:01;18.11;71.55
66835;HTU21D;53743;51.100;5.874;2023-05-21T05:59:03;18.29;71.09
66835;HTU21D;53743;51.100;5.874;2023-05-21T06:00:09;18.51;70.41
66835;HTU21D;53743;51.100;5.874;2023-05-21T06:01:20;18.78;69.04
66835;HTU21D;53743;51.100;5.874;2023-05-21T06:02:24;18.92;68.55
66835;HTU21D;53743;51.100;5.874;2023-05-21T06:03:26;19.10;68.20
66835;HTU21D;53743;51.100;5.874;2023-05-21T06:04:30;19.33;67.76
66835;HTU21D;53743;51.100;5.874;2023-05-21T06:05:31;19.57;65.86
66835;HTU21D;53743;51.100;5.874;2023-05-21T06:06:34;19.74;65.50
66835;HTU21D;53743;51.100;5.874;2023-05-21T06:07:37;19.86;65.54
66835;HTU21D;53743;51.100;5.874;2023-05-21T06:08:40;20.00;65.65
66835;HTU21D;53743;51.100;5.874;2023-05-21T06:09:41;20.17;65.10
66835;HTU21D;53743;51.100;5.874;2023-05-21T06:10:44;20.37;64.40
66835;HTU21D;53743;51.100;5.874;2023-05-21T06:11:45;20.54;62.47
66835;HTU21D;53743;51.100;5.874;2023-05-21T06:12:48;20.61;62.86
66835;HTU21D;53743;51.100;5.874;2023-05-21T06:13:49;20.61;62.76
66835;HTU21D;53743;51.100;5.874;2023-05-21T06:14:52;20.68;62.54
66835;HTU21D;53743;51.100;5.874;2023-05-21T06:15:53;20.78;61.31
66835;HTU21D;53743;51.100;5.874;2023-05-21T06:16:56;20.84;60.80
66835;HTU21D;53743;51.100;5.874;2023-05-21T06:17:58;20.91;61.57
66835;HTU21D;53743;51.100;5.874;2023-05-21T06:19:01;20.96;60.38
66835;HTU21D;53743;51.100;5.874;2023-05-21T06:20:06;21.01;60.96
66835;HTU21D;53743;51.100;5.874;2023-05-21T06:21:12;21.04;60.50
66835;HTU21D;53743;51.100;5.874;2023-05-21T06:22:14;21.10;60.35
66835;HTU21D;53743;51.100;5.874;2023-05-21T06:23:17;21.25;59.61
66835;HTU21D;53743;51.100;5.874;2023-05-21T06:24:20;21.37;59.48
66835;HTU21D;53743;51.100;5.874;2023-05-21T06:25:22;21.51;59.57
66835;HTU21D;53743;51.100;5.874;2023-05-21T06:26:25;21.69;58.82
66835;HTU21D;53743;51.100;5.874;2023-05-21T06:27:27;21.83;58.38
66835;HTU21D;53743;51.100;5.874;2023-05-21T06:28:29;21.93;56.18
66835;HTU21D;53743;51.100;5.874;2023-05-21T06:29:35;22.04;56.52
66835;HTU21D;53743;51.100;5.874;2023-05-21T06:30:36;22.07;55.15
66835;HTU21D;53743;51.100;5.874;2023-05-21T06:31:39;22.13;56.99
66835;HTU21D;53743;51.100;5.874;2023-05-21T06:32:41;22.23;56.75
66835;HTU21D;53743;51.100;5.874;2023-05-21T06:33:43;22.34;56.51